Time;durP1;ratioP1;P1;durP2;ratioP2;P2;SDS_P1;SDS_P2;PMS_P1;PMS_P2;Temp;Humidity;BMP_temperature;BMP_pressure;BME280_temperature;BME280_humidity;BME280_pressure;Samples;Min_cycle;Max_cycle;Signal;HPM_P1;HPM_P2
2021/03/21 00:02:04;;;;;;;47.13;23.25;;;;;;;3.25;100.00;96937.66;5057082;28;20162;-60
2021/03/21 00:04:48;;;;;;;51.72;24.25;;;;;;;3.48;100.00;96991.06;5044750;28;20048;-57
2021/03/21 00:07:32;;;;;;;50.80;24.85;;;;;;;3.30;100.00;96944.88;5044259;28;20044;-57
2021/03/21 00:10:16;;;;;;;45.15;23.15;;;;;;;3.73;100.00;97014.81;5043854;28;20120;-58
2021/03/21 00:13:01;;;;;;;51.22;24.98;;;;;;;3.80;100.00;97015.13;5044455;28;20056;-59
2021/03/21 00:15:46;;;;;;;52.22;25.15;;;;;;;3.41;100.00;96976.25;5062699;28;20552;-57
2021/03/21 00:18:34;;;;;;;47.67;22.85;;;;;;;3.87;100.00;97036.53;5064944;28;20055;-59
2021/03/21 00:21:18;;;;;;;52.28;24.70;;;;;;;3.89;100.00;97029.59;5063920;28;20058;-57
2021/03/21 00:24:04;;;;;;;45.25;22.90;;;;;;;3.76;100.00;97019.63;5064337;28;20048;-56
2021/03/21 00:26:48;;;;;;;47.03;22.85;;;;;;;3.46;100.00;97004.28;5063506;28;20151;-58
2021/03/21 00:29:33;;;;;;;50.63;23.88;;;;;;;3.06;100.00;97016.56;5063953;28;20052;-56
2021/03/21 00:32:17;;;;;;;52.72;23.58;;;;;;;3.17;100.00;96940.41;5063602;28;20070;-56
2021/03/21 00:35:01;;;;;;;53.95;26.67;;;;;;;3.57;100.00;97011.03;5064032;28;20077;-58
2021/03/21 00:37:45;;;;;;;52.83;24.90;;;;;;;3.29;100.00;96952.28;5063096;28;20101;-56
2021/03/21 00:40:30;;;;;;;47.88;24.55;;;;;;;3.60;100.00;96982.97;5063540;28;20139;-59
2021/03/21 00:43:14;;;;;;;53.90;25.10;;;;;;;2.53;100.00;96860.25;5064002;28;20059;-57
2021/03/21 00:45:59;;;;;;;83.03;29.42;;;;;;;3.08;100.00;96976.00;5062151;28;20048;-57
2021/03/21 00:48:45;;;;;;;59.03;26.75;;;;;;;2.74;100.00;96989.69;5063953;28;20051;-57
2021/03/21 00:51:29;;;;;;;56.47;24.52;;;;;;;2.23;100.00;96945.94;5063354;28;20066;-56
2021/03/21 00:54:13;;;;;;;76.95;28.15;;;;;;;2.50;100.00;96992.06;5064180;28;20111;-57
2021/03/21 00:56:57;;;;;;;84.53;30.83;;;;;;;2.45;100.00;96984.06;5063350;28;20051;-57
2021/03/21 00:59:41;;;;;;;57.53;26.58;;;;;;;1.63;100.00;96902.06;5063473;28;20674;-58
2021/03/21 01:02:25;;;;;;;58.63;26.30;;;;;;;1.93;100.00;96961.25;5063035;28;20545;-56
2021/03/21 01:05:15;;;;;;;65.78;28.75;;;;;;;2.35;100.00;97006.22;5062006;28;20125;-56
2021/03/21 01:08:00;;;;;;;55.83;25.00;;;;;;;2.41;100.00;96994.81;5063391;28;20047;-60
2021/03/21 01:10:46;;;;;;;51.67;23.98;;;;;;;2.28;100.00;96997.66;5061930;28;20042;-56
2021/03/21 01:13:31;;;;;;;45.53;21.48;;;;;;;2.24;100.00;96966.66;5063364;28;20039;-56
2021/03/21 01:16:34;;;;;;;81.05;29.80;;;;;;;2.39;100.00;96968.91;5043253;28;20459;-57
2021/03/21 01:19:20;;;;;;;58.15;25.13;;;;;;;2.42;100.00;96958.16;5043890;28;20068;-58
2021/03/21 01:22:05;;;;;;;59.42;23.05;;;;;;;1.91;100.00;96897.19;5041469;28;20129;-56
2021/03/21 01:24:49;;;;;;;51.45;24.55;;;;;;;1.96;100.00;96910.69;5043326;28;20075;-55
2021/03/21 01:27:34;;;;;;;52.53;23.45;;;;;;;2.15;100.00;96941.25;5043357;28;20542;-56
2021/03/21 01:30:19;;;;;;;73.25;28.38;;;;;;;2.28;100.00;96962.97;5042948;28;20419;-57
2021/03/21 01:33:03;;;;;;;84.88;30.05;;;;;;;2.45;100.00;96987.56;5043563;28;20127;-59
2021/03/21 01:35:51;;;;;;;55.58;24.35;;;;;;;2.50;100.00;96971.03;5041857;28;20044;-57
2021/03/21 01:38:35;;;;;;;66.13;25.88;;;;;;;2.36;100.00;96975.03;5043502;28;20411;-58
2021/03/21 01:41:23;;;;;;;57.30;23.95;;;;;;;2.37;100.00;96982.13;5042948;28;20071;-56
2021/03/21 01:44:13;;;;;;;52.38;23.33;;;;;;;2.39;100.00;96990.78;5043191;28;20114;-57
2021/03/21 01:46:57;;;;;;;46.28;22.23;;;;;;;2.51;100.00;96999.16;5047017;28;20047;-57
2021/03/21 01:49:45;;;;;;;42.92;20.52;;;;;;;2.13;100.00;96916.97;5046058;28;20079;-57
2021/03/21 01:52:41;;;;;;;43.80;21.27;;;;;;;2.66;100.00;96985.84;5046757;28;20491;-57
2021/03/21 01:55:26;;;;;;;39.65;20.00;;;;;;;2.77;100.00;97010.91;5045204;28;20055;-56
2021/03/21 01:58:10;;;;;;;37.30;20.45;;;;;;;2.79;100.00;97005.94;5045210;28;20036;-56
2021/03/21 02:01:19;;;;;;;39.47;20.33;;;;;;;2.71;100.00;96993.88;5045039;28;20470;-56
2021/03/21 02:04:04;;;;;;;46.10;21.83;;;;;;;2.70;100.00;96972.34;5046422;28;20047;-59
2021/03/21 02:07:32;;;;;;;41.30;20.67;;;;;;;2.87;100.00;96966.84;5046227;28;20518;-56
2021/03/21 02:10:35;;;;;;;38.75;19.33;;;;;;;2.82;100.00;96945.94;5046396;28;20094;-57
2021/03/21 02:13:37;;;;;;;43.65;19.35;;;;;;;2.80;100.00;96980.19;5047079;28;20671;-56
2021/03/21 02:16:28;;;;;;;39.17;19.92;;;;;;;2.52;100.00;96967.97;5058837;28;20084;-56
2021/03/21 02:19:51;;;;;;;35.20;18.75;;;;;;;2.80;100.00;97013.00;5046696;28;20134;-56
2021/03/21 02:22:52;;;;;;;32.40;17.10;;;;;;;2.31;100.00;96928.75;5043423;28;20064;-56
2021/03/21 02:25:53;;;;;;;34.00;19.13;;;;;;;2.84;100.00;97019.47;5046370;28;20102;-57
2021/03/21 02:28:41;;;;;;;34.88;17.33;;;;;;;2.60;100.00;96986.31;5046442;28;20056;-57
2021/03/21 02:31:39;;;;;;;30.50;16.58;;;;;;;2.31;100.00;96923.28;5044267;28;20044;-58
2021/03/21 02:35:01;;;;;;;33.58;17.55;;;;;;;2.88;100.00;96998.53;5045000;28;20111;-57
2021/03/21 02:37:56;;;;;;;37.47;18.50;;;;;;;2.84;100.00;96997.59;5046158;28;20549;-59
2021/03/21 02:40:48;;;;;;;41.25;18.65;;;;;;;1.98;100.00;96886.56;5044673;28;20039;-57
2021/03/21 02:43:42;;;;;;;41.95;17.48;;;;;;;2.04;100.00;96879.84;5044351;28;20071;-57
2021/03/21 02:46:31;;;;;;;39.30;19.70;;;;;;;2.71;100.00;96982.13;5046032;28;20511;-59
2021/03/21 02:49:20;;;;;;;37.42;18.98;;;;;;;2.76;100.00;96968.31;5046210;28;20427;-59
2021/03/21 02:52:09;;;;;;;36.90;17.98;;;;;;;2.83;100.00;96971.34;5045246;28;20048;-57
2021/03/21 02:55:03;;;;;;;35.90;17.80;;;;;;;2.68;100.00;96966.38;5044841;28;20143;-57
2021/03/21 02:58:04;;;;;;;32.85;17.52;;;;;;;2.87;100.00;96997.75;5045324;28;20052;-57
2021/03/21 03:00:56;;;;;;;36.88;18.27;;;;;;;2.78;100.00;96993.41;5045812;28;20545;-57
2021/03/21 03:03:45;;;;;;;44.53;20.92;;;;;;;2.33;100.00;96896.41;5046329;28;20051;-56
2021/03/21 03:06:52;;;;;;;55.53;25.17;;;;;;;2.42;100.00;96927.31;5045049;28;20051;-57
2021/03/21 03:09:44;;;;;;;43.15;19.55;;;;;;;2.96;100.00;97000.47;5045828;28;20574;-59
2021/03/21 03:12:35;;;;;;;34.75;18.13;;;;;;;2.78;100.00;96972.31;5044931;28;20043;-57
2021/03/21 03:15:20;;;;;;;32.55;15.82;;;;;;;2.79;100.00;96990.34;5044774;28;20540;-56
2021/03/21 03:18:32;;;;;;;31.20;15.82;;;;;;;2.46;100.00;96931.00;5043929;28;20210;-57
2021/03/21 03:21:28;;;;;;;27.27;15.35;;;;;;;2.97;100.00;97013.03;5043522;28;20153;-57
2021/03/21 03:24:34;;;;;;;31.52;16.10;;;;;;;2.67;100.00;96994.84;5043898;28;20112;-57
2021/03/21 03:27:28;;;;;;;34.10;16.42;;;;;;;2.42;100.00;96962.84;5044942;28;20514;-57
2021/03/21 03:30:17;;;;;;;32.00;17.13;;;;;;;2.75;100.00;96999.53;5044675;28;20094;-59
2021/03/21 03:33:03;;;;;;;33.35;16.77;;;;;;;1.85;100.00;96849.31;5045150;28;20036;-58
2021/03/21 03:35:47;;;;;;;34.83;16.92;;;;;;;2.57;100.00;96976.81;5043155;28;20067;-56
2021/03/21 03:38:31;;;;;;;33.00;17.35;;;;;;;2.63;100.00;96981.00;5045107;28;20043;-57
2021/03/21 03:41:37;;;;;;;35.47;17.60;;;;;;;2.55;100.00;96981.00;5044430;28;20098;-59
2021/03/21 03:44:38;;;;;;;30.60;16.40;;;;;;;2.49;100.00;96974.06;5045180;28;20202;-56
2021/03/21 03:47:25;;;;;;;33.72;17.88;;;;;;;2.55;100.00;96978.25;5044244;28;20125;-57
2021/03/21 03:50:52;;;;;;;34.20;17.40;;;;;;;2.38;100.00;96950.91;5044215;28;20490;-57
2021/03/21 03:54:08;;;;;;;32.65;17.00;;;;;;;2.37;100.00;96965.72;5043620;28;20117;-56
2021/03/21 03:57:09;;;;;;;34.70;17.40;;;;;;;2.23;100.00;96932.28;5044492;28;20419;-55
2021/03/21 04:00:03;;;;;;;34.13;17.00;;;;;;;2.05;100.00;96887.72;5043640;28;20589;-56
2021/03/21 04:03:10;;;;;;;;;;;;;;;2.39;100.00;96957.97;5045755;28;20071;-55
2021/03/21 04:06:07;;;;;;;33.00;15.85;;;;;;;2.13;100.00;96916.16;5044155;28;20025;-55
2021/03/21 04:08:57;;;;;;;30.08;15.90;;;;;;;1.84;100.00;96859.41;5043946;28;20419;-56
2021/03/21 04:12:02;;;;;;;32.22;17.25;;;;;;;1.98;100.00;96919.34;5043453;28;20491;-56
2021/03/21 04:14:52;;;;;;;33.38;16.38;;;;;;;2.03;100.00;96932.84;5053797;28;20051;-56
2021/03/21 04:17:44;;;;;;;31.33;15.77;;;;;;;2.38;100.00;96975.50;5064109;28;20044;-56
2021/03/21 04:20:34;;;;;;;35.30;20.40;;;;;;;2.41;100.00;96989.34;5063683;28;20134;-57
2021/03/21 04:23:42;;;;;;;30.42;16.50;;;;;;;2.34;100.00;96993.69;5064518;28;20055;-56
2021/03/21 04:26:36;;;;;;;27.10;15.32;;;;;;;1.73;100.00;96885.41;5063528;28;20034;-57
2021/03/21 04:29:36;;;;;;;29.52;14.63;;;;;;;2.39;100.00;97001.72;5064123;28;20519;-56
2021/03/21 04:32:42;;;;;;;31.88;16.73;;;;;;;2.36;100.00;97000.44;5063634;28;20039;-57
2021/03/21 04:35:32;;;;;;;36.25;17.48;;;;;;;2.33;100.00;97000.25;5062279;28;20078;-56
2021/03/21 04:38:30;;;;;;;46.10;21.65;;;;;;;2.35;100.00;97017.16;5062981;28;20035;-57
2021/03/21 04:41:20;;;;;;;54.28;24.77;;;;;;;2.28;100.00;97022.25;5063918;28;20106;-56
2021/03/21 04:44:22;;;;;;;53.78;25.08;;;;;;;1.64;100.00;96949.28;5063726;28;20054;-55
2021/03/21 04:47:13;;;;;;;47.15;23.05;;;;;;;2.34;100.00;97016.34;5061927;28;20043;-59
2021/03/21 04:49:58;;;;;;;43.42;21.80;;;;;;;2.35;100.00;97026.16;5063731;28;20046;-56
2021/03/21 04:53:05;;;;;;;34.45;18.77;;;;;;;2.29;100.00;97012.97;5062350;28;20125;-56
2021/03/21 04:56:01;;;;;;;37.35;18.02;;;;;;;2.34;100.00;96999.16;5063339;28;20120;-56
2021/03/21 04:58:51;;;;;;;35.55;18.10;;;;;;;1.82;100.00;96901.81;5064597;28;20673;-56
2021/03/21 05:02:17;;;;;;;37.05;19.05;;;;;;;2.40;100.00;96997.88;5063309;28;20062;-56
2021/03/21 05:05:24;;;;;;;40.90;22.38;;;;;;;2.38;100.00;96990.00;5062391;28;20047;-56
2021/03/21 05:08:17;;;;;;;44.33;20.23;;;;;;;2.37;100.00;97006.72;5063340;28;20147;-58
2021/03/21 05:11:04;;;;;;;39.60;19.98;;;;;;;2.39;100.00;97004.44;5063051;28;20103;-56
2021/03/21 05:14:01;;;;;;;39.88;20.67;;;;;;;1.37;100.00;96825.59;5062635;28;20055;-57
2021/03/21 05:16:59;;;;;;;36.83;20.10;;;;;;;2.44;100.00;96993.34;5043486;28;20626;-57
2021/03/21 05:20:00;;;;;;;36.17;19.25;;;;;;;1.63;100.00;96869.31;5044542;28;20060;-57
2021/03/21 05:23:11;;;;;;;38.88;19.35;;;;;;;2.41;100.00;97002.19;5046501;28;20111;-58
2021/03/21 05:26:09;;;;;;;39.05;19.95;;;;;;;1.19;100.00;96826.66;5045923;28;20519;-59
2021/03/21 05:29:11;;;;;;;37.05;19.80;;;;;;;2.38;100.00;96995.47;5046250;28;20067;-58
2021/03/21 05:31:55;;;;;;;35.13;19.13;;;;;;;2.08;100.00;96951.84;5046221;28;20122;-57
2021/03/21 05:34:40;;;;;;;35.58;19.55;;;;;;;2.24;100.00;96994.78;5047955;28;20640;-56
2021/03/21 05:37:31;;;;;;;38.67;17.98;;;;;;;1.35;100.00;96885.13;5046959;28;20104;-57
2021/03/21 05:40:44;;;;;;;35.10;18.50;;;;;;;2.22;100.00;96996.22;5046551;28;20040;-57
2021/03/21 05:43:49;;;;;;;31.45;16.67;;;;;;;2.29;100.00;96993.84;5047027;28;20122;-57
2021/03/21 05:47:00;;;;;;;31.33;17.90;;;;;;;2.28;100.00;96997.66;5041665;28;20056;-58
2021/03/21 05:49:48;;;;;;;30.98;17.70;;;;;;;2.32;100.00;97001.38;5046101;28;20629;-58
2021/03/21 05:52:48;;;;;;;28.17;15.82;;;;;;;2.30;100.00;96992.69;5047036;28;20036;-59
2021/03/21 05:56:00;;;;;;;29.98;16.85;;;;;;;2.41;100.00;96994.00;5046285;28;20501;-57
2021/03/21 05:59:17;;;;;;;29.98;15.68;;;;;;;2.46;100.00;96991.13;5046369;28;20106;-57
2021/03/21 06:02:01;;;;;;;28.08;15.50;;;;;;;2.39;100.00;96991.59;5045793;28;20143;-57
2021/03/21 06:05:03;;;;;;;27.42;16.27;;;;;;;2.47;100.00;96992.72;5045406;28;20451;-58
2021/03/21 06:08:28;;;;;;;26.20;14.82;;;;;;;2.59;100.00;96998.38;5046171;28;20056;-56
2021/03/21 06:11:32;;;;;;;25.08;13.90;;;;;;;2.58;100.00;96988.56;5045789;28;20533;-55
2021/03/21 06:14:52;;;;;;;23.60;13.43;;;;;;;2.43;100.00;96991.75;5051512;28;20058;-57
2021/03/21 06:17:52;;;;;;;26.70;14.35;;;;;;;2.66;100.00;96985.03;5066780;28;20123;-56
2021/03/21 06:20:39;;;;;;;23.83;12.25;;;;;;;2.39;100.00;96996.25;5064291;28;20521;-57
2021/03/21 06:23:48;;;;;;;24.30;13.20;;;;;;;2.62;100.00;97000.47;5066485;28;20097;-58
2021/03/21 06:26:42;;;;;;;22.45;11.85;;;;;;;2.52;100.00;96995.31;5064222;28;20094;-59
2021/03/21 06:29:46;;;;;;;21.88;12.85;;;;;;;2.69;100.00;97000.78;5065933;28;20539;-56
2021/03/21 06:32:30;;;;;;;18.23;10.52;;;;;;;2.61;100.00;96990.63;5064601;28;20040;-56
2021/03/21 06:35:35;;;;;;;22.63;11.27;;;;;;;2.71;100.00;97014.94;5065749;28;20573;-57
2021/03/21 06:38:55;;;;;;;16.08;9.73;;;;;;;2.85;100.00;97018.31;5066238;28;20079;-56
2021/03/21 06:42:15;;;;;;;15.15;9.25;;;;;;;2.91;100.00;97022.50;5022626;28;20095;-57
2021/03/21 06:45:35;;;;;;;13.23;8.00;;;;;;;2.88;100.00;97032.16;5065796;28;20294;-58
2021/03/21 06:48:46;;;;;;;14.23;8.18;;;;;;;2.75;100.00;97005.00;5064380;28;20071;-57
2021/03/21 06:51:38;;;;;;;14.35;8.80;;;;;;;2.97;100.00;97030.22;5064757;28;20119;-56
2021/03/21 06:54:44;;;;;;;14.10;8.63;;;;;;;2.84;100.00;97030.41;5065756;28;20054;-57
2021/03/21 06:57:34;;;;;;;11.70;7.15;;;;;;;2.78;100.00;96998.88;5065411;28;20082;-57
2021/03/21 07:00:30;;;;;;;11.70;7.53;;;;;;;2.55;100.00;96992.75;5065215;28;20051;-57
2021/03/21 07:03:29;;;;;;;14.55;8.43;;;;;;;2.48;100.00;96981.47;5065514;28;20093;-60
2021/03/21 07:06:22;;;;;;;12.65;7.93;;;;;;;2.67;100.00;96992.91;5065015;28;20131;-57
2021/03/21 07:09:21;;;;;;;13.52;8.43;;;;;;;2.12;100.00;96892.72;5065623;28;20110;-57
2021/03/21 07:12:33;;;;;;;12.90;8.88;;;;;;;2.99;100.00;97011.56;5064954;28;20051;-59
2021/03/21 07:15:42;;;;;;;10.68;7.40;;;;;;;3.05;100.00;97014.97;5057781;28;20048;-56
2021/03/21 07:18:35;;;;;;;9.75;6.70;;;;;;;3.18;100.00;97024.91;5046012;28;20051;-56
2021/03/21 07:21:57;;;;;;;8.65;6.03;;;;;;;3.31;100.00;97040.38;5043600;28;20059;-57
2021/03/21 07:25:13;;;;;;;10.00;6.40;;;;;;;3.03;100.00;96962.50;5045349;28;20060;-58
2021/03/21 07:28:29;;;;;;;9.15;5.88;;;;;;;3.40;100.00;97016.50;5043130;28;20125;-58
2021/03/21 07:31:47;;;;;;;8.68;6.05;;;;;;;3.40;100.00;97027.47;5043077;28;20055;-57
2021/03/21 07:34:43;;;;;;;9.35;5.78;;;;;;;2.98;100.00;97031.06;5045171;28;20068;-57
2021/03/21 07:37:34;;;;;;;10.60;7.53;;;;;;;2.69;100.00;97018.00;5045067;28;20048;-56
2021/03/21 07:40:40;;;;;;;11.38;7.00;;;;;;;2.28;100.00;96907.50;5044480;28;20060;-57
2021/03/21 07:43:57;;;;;;;9.93;6.70;;;;;;;2.37;100.00;96933.69;5042691;28;20067;-57
2021/03/21 07:47:07;;;;;;;9.10;6.28;;;;;;;2.60;100.00;97013.66;5034034;28;20067;-59
2021/03/21 07:49:57;;;;;;;11.45;6.65;;;;;;;2.38;100.00;97006.38;5043118;28;20063;-58
2021/03/21 07:52:41;;;;;;;11.15;7.00;;;;;;;2.28;100.00;97016.78;5044343;28;20126;-56
2021/03/21 07:55:54;;;;;;;11.27;6.65;;;;;;;2.27;100.00;97020.66;5042033;28;20053;-56
2021/03/21 07:58:49;;;;;;;13.30;7.45;;;;;;;2.55;100.00;97022.00;5044505;28;20043;-56
2021/03/21 08:01:33;;;;;;;13.13;7.85;;;;;;;2.32;100.00;96995.91;5043872;28;20333;-57
2021/03/21 08:04:52;;;;;;;11.35;6.88;;;;;;;2.55;100.00;97022.00;5043247;28;20079;-58
2021/03/21 08:07:39;;;;;;;10.15;6.65;;;;;;;2.61;100.00;97027.00;5034814;28;20095;-57
2021/03/21 08:10:30;;;;;;;20.50;11.23;;;;;;;1.96;100.00;96845.16;5043852;28;20044;-57
2021/03/21 08:13:39;;;;;;;8.60;5.50;;;;;;;2.67;100.00;97014.00;5044207;28;20129;-56
2021/03/21 08:16:45;;;;;;;12.68;7.53;;;;;;;2.95;100.00;97035.25;5044034;28;20572;-55
2021/03/21 08:19:34;;;;;;;8.85;6.20;;;;;;;2.42;100.00;96930.81;5044661;28;20175;-56
2021/03/21 08:22:22;;;;;;;8.20;5.72;;;;;;;2.73;100.00;96985.34;5043510;28;20098;-56
2021/03/21 08:25:26;;;;;;;8.30;5.30;;;;;;;2.91;100.00;97003.34;5043690;28;20118;-72
2021/03/21 08:28:14;;;;;;;6.97;4.20;;;;;;;0.88;100.00;96711.41;5042165;28;20150;-70
2021/03/21 08:30:59;;;;;;;8.77;5.35;;;;;;;1.80;100.00;96852.19;5042066;28;20083;-70
2021/03/21 08:33:43;;;;;;;9.23;6.03;;;;;;;2.79;100.00;97014.16;5042376;28;20051;-69
2021/03/21 08:36:28;;;;;;;8.85;5.80;;;;;;;2.85;100.00;97000.00;5042975;28;20039;-71
2021/03/21 08:39:23;;;;;;;7.57;5.38;;;;;;;2.97;100.00;96985.69;5044249;28;20581;-70
2021/03/21 08:42:38;;;;;;;9.30;6.88;;;;;;;3.47;100.00;96983.16;5043139;28;20133;-69
2021/03/21 08:45:30;;;;;;;8.68;5.80;;;;;;;3.15;100.00;96979.03;5041686;28;20127;-71
2021/03/21 08:48:21;;;;;;;9.48;6.93;;;;;;;3.31;100.00;96991.09;5042185;28;20051;-68
2021/03/21 08:51:05;;;;;;;9.60;6.63;;;;;;;3.35;100.00;96986.56;5042739;28;20597;-72
2021/03/21 08:54:28;;;;;;;11.13;7.18;;;;;;;3.79;100.00;96993.53;5042377;28;20094;-73
2021/03/21 08:57:27;;;;;;;8.88;6.20;;;;;;;3.20;100.00;96984.34;5042776;28;20044;-70
2021/03/21 09:00:23;;;;;;;12.45;7.68;;;;;;;3.21;100.00;96985.16;5043531;28;20490;-72
2021/03/21 09:03:29;;;;;;;10.40;6.18;;;;;;;3.03;100.00;96995.31;5043850;28;20063;-72
2021/03/21 09:06:38;;;;;;;11.90;8.00;;;;;;;2.68;100.00;96933.56;5043047;28;20128;-72
2021/03/21 09:09:34;;;;;;;9.73;6.90;;;;;;;3.62;100.00;96991.66;5043682;28;20071;-71
2021/03/21 09:12:24;;;;;;;11.98;7.43;;;;;;;3.31;100.00;96991.09;5042989;28;20048;-71
2021/03/21 09:15:26;;;;;;;12.10;7.53;;;;;;;3.22;100.00;96979.38;5053993;28;20051;-72
2021/03/21 09:18:10;;;;;;;8.18;6.00;;;;;;;2.89;100.00;96967.34;5062573;28;20044;-71
2021/03/21 09:21:21;;;;;;;19.00;12.82;;;;;;;2.42;100.00;96845.31;5063447;28;20067;-70
2021/03/21 09:24:09;;;;;;;17.08;10.98;;;;;;;3.28;100.00;96920.59;5063512;28;20121;-70
2021/03/21 09:27:14;;;;;;;16.70;11.43;;;;;;;3.61;100.00;96902.44;5061360;28;20086;-70
2021/03/21 09:30:15;;;;;;;31.80;19.05;;;;;;;3.74;100.00;96950.72;5063201;28;20114;-69
2021/03/21 09:33:05;;;;;;;33.38;18.50;;;;;;;3.91;100.00;96939.66;5063448;28;20097;-69
2021/03/21 09:36:07;;;;;;;25.48;14.00;;;;;;;3.10;100.00;96771.25;5061370;28;20047;-69
2021/03/21 09:38:55;;;;;;;51.70;23.67;;;;;;;4.03;100.00;96909.59;5063714;28;20043;-69
2021/03/21 09:41:41;;;;;;;34.75;18.45;;;;;;;3.65;100.00;96880.66;5065052;28;20439;-67
2021/03/21 09:44:28;;;;;;;30.00;20.20;;;;;;;4.10;100.00;96907.16;5061707;28;20047;-69
2021/03/21 09:47:18;;;;;;;23.98;13.93;;;;;;;3.41;100.00;96848.41;5059923;28;20067;-69
2021/03/21 09:50:14;;;;;;;39.67;20.60;;;;;;;3.89;100.00;96906.31;5061722;28;20084;-67
2021/03/21 09:53:39;;;;;;;18.92;11.90;;;;;;;3.45;100.00;96887.66;5062752;28;20414;-68
2021/03/21 09:56:32;;;;;;;36.22;12.65;;;;;;;3.59;100.00;96910.16;5062472;28;20426;-69
2021/03/21 09:59:38;;;;;;;120.57;29.77;;;;;;;3.85;100.00;96908.13;5062714;28;20066;-69
2021/03/21 10:02:34;;;;;;;35.47;14.00;;;;;;;3.65;100.00;96908.84;5062742;28;20608;-70
2021/03/21 10:05:30;;;;;;;31.73;13.30;;;;;;;2.78;100.00;96801.97;5062714;28;20102;-69
2021/03/21 10:08:46;;;;;;;23.45;10.75;;;;;;;3.41;100.00;96914.13;5066107;28;20149;-68
2021/03/21 10:11:38;;;;;;;17.15;10.30;;;;;;;3.66;100.00;96910.47;5047823;28;20136;-68
2021/03/21 10:14:22;;;;;;;55.33;17.17;;;;;;;3.99;100.00;96897.72;5062508;28;20953;-68
2021/03/21 10:17:18;;;;;;;26.73;12.00;;;;;;;3.91;100.00;96893.09;5045741;28;20187;-67
2021/03/21 10:20:03;;;;;;;22.67;11.30;;;;;;;4.12;98.83;96902.16;5046593;28;20075;-67
2021/03/21 10:22:47;;;;;;;15.88;9.77;;;;;;;4.10;97.73;96898.94;5046543;28;20040;-68
2021/03/21 10:25:51;;;;;;;14.30;9.52;;;;;;;4.09;98.73;96908.31;5045713;28;20119;-68
2021/03/21 10:28:43;;;;;;;;;;;;;;;4.42;97.27;96917.44;5046672;28;20064;-68
2021/03/21 10:31:36;;;;;;;12.85;8.32;;;;;;;4.34;94.98;96877.16;5044600;28;19990;-68
2021/03/21 10:34:20;;;;;;;17.02;11.30;;;;;;;4.69;94.45;96903.16;5046376;28;20040;-68
2021/03/21 10:37:05;;;;;;;18.10;12.38;;;;;;;4.65;94.09;96885.78;5044408;28;20079;-68
2021/03/21 10:39:49;;;;;;;20.55;12.82;;;;;;;5.00;93.63;96904.66;5046057;28;20095;-68
2021/03/21 10:42:45;;;;;;;27.77;17.23;;;;;;;4.44;91.76;96799.97;5046133;28;20670;-68
2021/03/21 10:45:32;;;;;;;22.00;12.70;;;;;;;5.06;88.94;96897.84;5045069;28;20098;-68
2021/03/21 10:48:19;;;;;;;15.98;10.45;;;;;;;4.51;91.09;96833.16;5045819;28;20530;-68
2021/03/21 10:51:07;;;;;;;26.05;12.80;;;;;;;4.92;91.38;96894.56;5045267;28;20090;-68
2021/03/21 10:53:53;;;;;;;20.15;12.70;;;;;;;4.85;91.86;96892.38;5045981;28;20039;-68
2021/03/21 10:56:37;;;;;;;17.67;11.43;;;;;;;4.84;92.17;96854.31;5044207;28;20095;-69
2021/03/21 10:59:26;;;;;;;15.45;9.90;;;;;;;4.15;90.92;96758.97;5044681;28;20051;-69
2021/03/21 11:02:23;;;;;;;12.85;8.98;;;;;;;4.25;92.83;96889.34;5045959;28;20055;-66
2021/03/21 11:05:23;;;;;;;21.35;13.70;;;;;;;4.06;96.60;96876.06;5045391;28;20039;-68
2021/03/21 11:08:14;;;;;;;20.25;12.82;;;;;;;4.45;95.95;96870.13;5045721;28;20047;-68
2021/03/21 11:11:15;;;;;;;17.17;11.20;;;;;;;4.51;96.60;96852.34;5044836;28;20572;-68
2021/03/21 11:14:12;;;;;;;13.85;8.82;;;;;;;4.42;95.81;96851.63;5046034;28;20067;-68
2021/03/21 11:17:21;;;;;;;17.02;10.63;;;;;;;4.65;93.27;96850.09;5064720;28;20048;-67
2021/03/21 11:20:23;;;;;;;14.15;8.63;;;;;;;4.40;90.90;96782.59;5066200;28;20051;-70
2021/03/21 11:23:12;;;;;;;13.50;8.88;;;;;;;5.15;90.72;96829.91;5065352;28;20100;-67
2021/03/21 11:25:57;;;;;;;12.32;8.48;;;;;;;5.50;88.99;96831.88;5064410;28;20043;-68
2021/03/21 11:28:43;;;;;;;15.05;10.10;;;;;;;4.93;90.87;96726.84;5065002;28;20059;-68
2021/03/21 11:31:34;;;;;;;14.50;9.98;;;;;;;5.41;90.18;96786.44;5064462;28;20529;-68
2021/03/21 11:34:21;;;;;;;13.45;9.07;;;;;;;5.52;87.88;96824.09;5063702;28;20489;-69
2021/03/21 11:37:19;;;;;;;13.73;8.98;;;;;;;4.47;93.97;96815.75;5064830;28;20082;-69
2021/03/21 11:40:24;;;;;;;14.30;9.38;;;;;;;4.29;94.30;96825.28;5064708;28;20568;-69
2021/03/21 11:43:20;;;;;;;15.13;10.07;;;;;;;4.58;96.39;96819.66;5063410;28;20102;-67
2021/03/21 11:46:27;;;;;;;17.30;9.98;;;;;;;4.37;96.55;96804.41;5063983;28;20357;-66
2021/03/21 11:49:12;;;;;;;24.48;13.57;;;;;;;3.88;99.25;96754.03;5063591;28;20039;-68
2021/03/21 11:52:01;;;;;;;22.83;13.23;;;;;;;4.32;97.63;96801.84;5063350;28;20572;-70
2021/03/21 11:54:46;;;;;;;25.67;17.17;;;;;;;4.73;98.87;96795.50;5063076;28;20525;-69
2021/03/21 11:57:43;;;;;;;19.67;11.73;;;;;;;4.74;99.48;96786.13;5064417;28;20090;-69
2021/03/21 12:00:37;;;;;;;14.95;9.65;;;;;;;4.03;98.63;96717.78;5062610;28;20111;-69
2021/03/21 12:03:23;;;;;;;;;;;;;;;4.29;97.27;96775.94;5065095;28;20051;-70
2021/03/21 12:06:32;;;;;;;18.25;11.35;;;;;;;4.31;98.88;96768.19;5062640;28;20388;-71
2021/03/21 12:09:36;;;;;;;18.38;10.88;;;;;;;4.51;100.00;96764.59;5063719;28;20098;-69
2021/03/21 12:12:42;;;;;;;17.17;11.85;;;;;;;4.22;100.00;96766.66;5062986;28;20131;-69
2021/03/21 12:15:25;;;;;;;14.82;9.85;;;;;;;4.17;100.00;96762.16;5051514;28;20451;-68
2021/03/21 12:18:27;;;;;;;14.93;9.98;;;;;;;3.92;100.00;96757.69;5042952;28;20047;-68
2021/03/21 12:21:15;;;;;;;35.92;19.73;;;;;;;4.16;100.00;96760.56;5043797;28;20086;-66
2021/03/21 12:24:06;;;;;;;20.40;13.05;;;;;;;4.33;100.00;96754.91;5043934;28;20108;-66
2021/03/21 12:26:58;;;;;;;44.63;24.42;;;;;;;4.23;100.00;96692.31;5043748;28;20550;-71
2021/03/21 12:29:44;;;;;;;13.35;7.35;;;;;;;4.59;97.12;96743.69;5043815;28;20044;-68
2021/03/21 12:32:44;;;;;;;20.02;13.90;;;;;;;4.43;99.90;96738.03;5044152;28;20059;-68
2021/03/21 12:35:28;;;;;;;31.38;17.63;;;;;;;4.88;97.45;96738.03;5041996;28;20071;-69
2021/03/21 12:38:33;;;;;;;13.27;9.55;;;;;;;4.91;94.73;96720.06;5043722;28;20172;-69
2021/03/21 12:41:34;;;;;;;99.03;57.17;;;;;;;4.53;95.33;96638.91;5043158;28;20232;-69
2021/03/21 12:44:21;;;;;;;58.97;35.28;;;;;;;5.10;96.42;96723.06;5042089;28;20075;-68
2021/03/21 12:47:16;;;;;;;26.48;15.52;;;;;;;5.22;94.61;96709.31;5041135;28;20456;-69
2021/03/21 12:50:17;;;;;;;15.88;10.77;;;;;;;4.84;94.54;96697.91;5042257;28;20553;-70
2021/03/21 12:53:04;;;;;;;18.55;12.13;;;;;;;5.07;96.24;96701.78;5043336;28;20132;-69
2021/03/21 12:55:50;;;;;;;14.85;9.95;;;;;;;4.90;96.07;96691.03;5043432;28;20052;-69
2021/03/21 12:58:34;;;;;;;18.50;12.57;;;;;;;4.77;97.12;96681.19;5042417;28;20040;-69
2021/03/21 13:01:20;;;;;;;18.88;12.00;;;;;;;5.21;97.06;96694.81;5042608;28;20587;-69
2021/03/21 13:04:04;;;;;;;17.95;12.15;;;;;;;5.35;96.09;96687.03;5043377;28;20094;-67
2021/03/21 13:06:48;;;;;;;22.35;14.65;;;;;;;4.22;97.16;96566.56;5043120;28;20183;-68
2021/03/21 13:09:32;;;;;;;16.67;10.73;;;;;;;4.88;98.37;96688.66;5043740;28;20068;-69
2021/03/21 13:12:16;;;;;;;17.73;11.77;;;;;;;4.25;94.76;96539.25;5041811;28;20103;-69
2021/03/21 13:15:00;;;;;;;17.23;11.70;;;;;;;5.07;94.31;96677.09;5051642;28;20047;-69
2021/03/21 13:17:44;;;;;;;16.48;10.23;;;;;;;4.42;92.52;96571.94;5063432;28;20039;-69
2021/03/21 13:20:28;;;;;;;25.38;18.45;;;;;;;1.85;94.27;96142.19;5063149;28;20104;-67
2021/03/21 13:23:12;;;;;;;27.58;18.38;;;;;;;5.22;96.18;96681.88;5063381;28;20127;-66
2021/03/21 13:25:57;;;;;;;13.02;9.05;;;;;;;4.78;94.21;96616.94;5062837;28;20065;-68
2021/03/21 13:28:42;;;;;;;11.95;7.82;;;;;;;4.47;96.24;96677.84;5062682;28;20182;-66
2021/03/21 13:31:26;;;;;;;13.70;9.02;;;;;;;4.19;99.03;96661.22;5062977;28;20580;-68